sensor_id;sensor_type;location;lat;lon;timestamp;P1;durP1;ratioP1;P2;durP2;ratioP2
64157;SDS011;50449;51.528;5.076;2023-04-24T00:02:22;30.98;;;29.33;;
64157;SDS011;50449;51.528;5.076;2023-04-24T00:04:48;30.80;;;29.00;;
64157;SDS011;50449;51.528;5.076;2023-04-24T00:07:14;32.50;;;30.52;;
64157;SDS011;50449;51.528;5.076;2023-04-24T00:09:41;31.02;;;29.20;;
64157;SDS011;50449;51.528;5.076;2023-04-24T00:12:07;34.53;;;32.28;;
64157;SDS011;50449;51.528;5.076;2023-04-24T00:14:33;32.83;;;30.67;;
64157;SDS011;50449;51.528;5.076;2023-04-24T00:16:59;34.17;;;32.20;;
64157;SDS011;50449;51.528;5.076;2023-04-24T00:19:26;33.00;;;30.92;;
64157;SDS011;50449;51.528;5.076;2023-04-24T00:21:52;33.08;;;31.17;;
64157;SDS011;50449;51.528;5.076;2023-04-24T00:24:18;31.15;;;29.05;;
64157;SDS011;50449;51.528;5.076;2023-04-24T00:26:44;33.00;;;30.98;;
64157;SDS011;50449;51.528;5.076;2023-04-24T00:29:09;31.95;;;29.65;;
64157;SDS011;50449;51.528;5.076;2023-04-24T00:31:35;34.80;;;32.53;;
64157;SDS011;50449;51.528;5.076;2023-04-24T00:34:00;34.13;;;31.73;;
64157;SDS011;50449;51.528;5.076;2023-04-24T00:36:27;29.05;;;27.48;;
64157;SDS011;50449;51.528;5.076;2023-04-24T00:38:53;33.13;;;31.02;;
64157;SDS011;50449;51.528;5.076;2023-04-24T00:41:18;32.33;;;30.17;;
64157;SDS011;50449;51.528;5.076;2023-04-24T00:43:44;31.30;;;29.30;;
64157;SDS011;50449;51.528;5.076;2023-04-24T00:46:10;35.47;;;33.05;;
64157;SDS011;50449;51.528;5.076;2023-04-24T00:48:38;34.95;;;32.55;;
64157;SDS011;50449;51.528;5.076;2023-04-24T00:51:04;34.10;;;31.90;;
64157;SDS011;50449;51.528;5.076;2023-04-24T00:53:30;34.50;;;32.28;;
64157;SDS011;50449;51.528;5.076;2023-04-24T00:55:55;32.50;;;30.48;;
64157;SDS011;50449;51.528;5.076;2023-04-24T00:58:21;34.17;;;31.85;;
64157;SDS011;50449;51.528;5.076;2023-04-24T01:00:48;31.38;;;29.50;;
64157;SDS011;50449;51.528;5.076;2023-04-24T01:03:15;30.65;;;28.92;;
64157;SDS011;50449;51.528;5.076;2023-04-24T01:05:41;32.80;;;30.42;;
64157;SDS011;50449;51.528;5.076;2023-04-24T01:08:07;33.92;;;31.67;;
64157;SDS011;50449;51.528;5.076;2023-04-24T01:10:32;33.17;;;31.05;;
64157;SDS011;50449;51.528;5.076;2023-04-24T01:12:59;34.30;;;31.58;;
64157;SDS011;50449;51.528;5.076;2023-04-24T01:15:25;32.58;;;30.30;;
64157;SDS011;50449;51.528;5.076;2023-04-24T01:17:50;30.50;;;28.85;;
64157;SDS011;50449;51.528;5.076;2023-04-24T01:20:16;31.48;;;29.58;;
64157;SDS011;50449;51.528;5.076;2023-04-24T01:22:42;29.10;;;27.50;;
64157;SDS011;50449;51.528;5.076;2023-04-24T01:25:08;32.92;;;30.77;;
64157;SDS011;50449;51.528;5.076;2023-04-24T01:27:34;30.88;;;28.88;;
64157;SDS011;50449;51.528;5.076;2023-04-24T01:29:59;36.80;;;33.63;;
64157;SDS011;50449;51.528;5.076;2023-04-24T01:32:25;32.92;;;30.70;;
64157;SDS011;50449;51.528;5.076;2023-04-24T01:34:51;33.45;;;30.98;;
64157;SDS011;50449;51.528;5.076;2023-04-24T01:37:16;36.40;;;33.42;;
64157;SDS011;50449;51.528;5.076;2023-04-24T01:39:43;34.85;;;32.60;;
64157;SDS011;50449;51.528;5.076;2023-04-24T01:42:08;31.13;;;29.15;;
64157;SDS011;50449;51.528;5.076;2023-04-24T01:44:34;35.92;;;33.15;;
64157;SDS011;50449;51.528;5.076;2023-04-24T01:47:00;33.83;;;31.60;;
64157;SDS011;50449;51.528;5.076;2023-04-24T01:49:26;38.85;;;35.70;;
64157;SDS011;50449;51.528;5.076;2023-04-24T01:51:52;32.45;;;30.25;;
64157;SDS011;50449;51.528;5.076;2023-04-24T01:54:17;36.45;;;33.38;;
64157;SDS011;50449;51.528;5.076;2023-04-24T01:56:43;36.38;;;33.28;;
64157;SDS011;50449;51.528;5.076;2023-04-24T01:59:12;32.20;;;29.77;;
64157;SDS011;50449;51.528;5.076;2023-04-24T02:04:04;31.27;;;28.90;;
64157;SDS011;50449;51.528;5.076;2023-04-24T02:06:30;33.80;;;31.20;;
64157;SDS011;50449;51.528;5.076;2023-04-24T02:08:57;33.03;;;30.98;;
64157;SDS011;50449;51.528;5.076;2023-04-24T02:11:23;31.70;;;29.77;;
64157;SDS011;50449;51.528;5.076;2023-04-24T02:13:48;31.27;;;28.90;;
64157;SDS011;50449;51.528;5.076;2023-04-24T02:16:15;31.33;;;29.27;;
64157;SDS011;50449;51.528;5.076;2023-04-24T02:18:40;34.10;;;31.65;;
64157;SDS011;50449;51.528;5.076;2023-04-24T02:21:05;33.08;;;30.80;;
64157;SDS011;50449;51.528;5.076;2023-04-24T02:23:31;34.63;;;31.92;;
64157;SDS011;50449;51.528;5.076;2023-04-24T02:25:56;33.40;;;31.25;;
64157;SDS011;50449;51.528;5.076;2023-04-24T02:28:21;33.22;;;30.30;;
64157;SDS011;50449;51.528;5.076;2023-04-24T02:30:47;30.95;;;29.05;;
64157;SDS011;50449;51.528;5.076;2023-04-24T02:33:12;32.58;;;30.05;;
64157;SDS011;50449;51.528;5.076;2023-04-24T02:35:38;31.85;;;29.95;;
64157;SDS011;50449;51.528;5.076;2023-04-24T02:38:03;28.65;;;26.92;;
64157;SDS011;50449;51.528;5.076;2023-04-24T02:40:29;32.65;;;30.45;;
64157;SDS011;50449;51.528;5.076;2023-04-24T02:42:55;31.15;;;29.05;;
64157;SDS011;50449;51.528;5.076;2023-04-24T02:45:20;29.58;;;27.67;;
64157;SDS011;50449;51.528;5.076;2023-04-24T02:47:46;33.00;;;30.80;;
64157;SDS011;50449;51.528;5.076;2023-04-24T02:50:11;31.67;;;29.33;;
64157;SDS011;50449;51.528;5.076;2023-04-24T02:52:36;33.40;;;31.02;;
64157;SDS011;50449;51.528;5.076;2023-04-24T02:55:02;31.08;;;29.02;;
64157;SDS011;50449;51.528;5.076;2023-04-24T02:57:27;33.17;;;31.05;;
64157;SDS011;50449;51.528;5.076;2023-04-24T02:59:53;30.40;;;28.45;;
64157;SDS011;50449;51.528;5.076;2023-04-24T03:02:18;33.03;;;30.92;;
64157;SDS011;50449;51.528;5.076;2023-04-24T03:04:45;31.23;;;28.98;;
64157;SDS011;50449;51.528;5.076;2023-04-24T03:07:12;30.50;;;28.70;;
64157;SDS011;50449;51.528;5.076;2023-04-24T03:09:38;33.22;;;31.02;;
64157;SDS011;50449;51.528;5.076;2023-04-24T03:12:04;32.55;;;30.02;;
64157;SDS011;50449;51.528;5.076;2023-04-24T03:14:29;32.53;;;30.42;;
64157;SDS011;50449;51.528;5.076;2023-04-24T03:16:56;28.25;;;26.30;;
64157;SDS011;50449;51.528;5.076;2023-04-24T03:19:21;35.38;;;32.67;;
64157;SDS011;50449;51.528;5.076;2023-04-24T03:21:47;32.00;;;29.95;;
64157;SDS011;50449;51.528;5.076;2023-04-24T03:24:13;29.38;;;27.65;;
64157;SDS011;50449;51.528;5.076;2023-04-24T03:26:38;32.45;;;30.20;;
64157;SDS011;50449;51.528;5.076;2023-04-24T03:29:03;34.30;;;31.65;;
64157;SDS011;50449;51.528;5.076;2023-04-24T03:31:29;33.00;;;30.60;;
64157;SDS011;50449;51.528;5.076;2023-04-24T03:33:54;29.88;;;28.05;;
64157;SDS011;50449;51.528;5.076;2023-04-24T03:36:20;28.27;;;26.75;;
64157;SDS011;50449;51.528;5.076;2023-04-24T03:38:45;31.05;;;28.98;;
64157;SDS011;50449;51.528;5.076;2023-04-24T03:41:11;31.27;;;29.27;;
64157;SDS011;50449;51.528;5.076;2023-04-24T03:43:36;31.33;;;29.40;;
64157;SDS011;50449;51.528;5.076;2023-04-24T03:46:03;31.05;;;29.05;;
64157;SDS011;50449;51.528;5.076;2023-04-24T03:48:28;28.90;;;27.25;;
64157;SDS011;50449;51.528;5.076;2023-04-24T03:50:54;32.70;;;30.55;;
64157;SDS011;50449;51.528;5.076;2023-04-24T03:53:20;30.00;;;28.05;;
64157;SDS011;50449;51.528;5.076;2023-04-24T03:55:45;28.23;;;26.67;;
64157;SDS011;50449;51.528;5.076;2023-04-24T03:58:11;32.33;;;30.08;;
64157;SDS011;50449;51.528;5.076;2023-04-24T04:00:38;33.40;;;30.73;;
64157;SDS011;50449;51.528;5.076;2023-04-24T04:03:05;31.17;;;29.08;;
64157;SDS011;50449;51.528;5.076;2023-04-24T04:05:30;29.00;;;27.30;;
64157;SDS011;50449;51.528;5.076;2023-04-24T04:07:56;30.92;;;28.73;;
64157;SDS011;50449;51.528;5.076;2023-04-24T04:10:21;31.00;;;28.52;;
64157;SDS011;50449;51.528;5.076;2023-04-24T04:12:47;29.00;;;27.15;;
64157;SDS011;50449;51.528;5.076;2023-04-24T04:15:12;28.95;;;27.13;;
64157;SDS011;50449;51.528;5.076;2023-04-24T04:17:37;31.23;;;29.25;;
64157;SDS011;50449;51.528;5.076;2023-04-24T04:20:03;29.90;;;27.90;;
64157;SDS011;50449;51.528;5.076;2023-04-24T04:22:33;29.35;;;27.45;;
64157;SDS011;50449;51.528;5.076;2023-04-24T04:24:59;29.23;;;27.38;;
64157;SDS011;50449;51.528;5.076;2023-04-24T04:27:24;30.35;;;28.45;;
64157;SDS011;50449;51.528;5.076;2023-04-24T04:29:50;28.40;;;26.58;;
64157;SDS011;50449;51.528;5.076;2023-04-24T04:32:16;28.55;;;26.70;;
64157;SDS011;50449;51.528;5.076;2023-04-24T04:34:41;31.67;;;29.42;;
64157;SDS011;50449;51.528;5.076;2023-04-24T04:37:07;30.42;;;28.27;;
64157;SDS011;50449;51.528;5.076;2023-04-24T04:39:33;28.45;;;26.70;;
64157;SDS011;50449;51.528;5.076;2023-04-24T04:41:59;30.00;;;28.10;;
64157;SDS011;50449;51.528;5.076;2023-04-24T04:44:25;30.52;;;28.50;;
64157;SDS011;50449;51.528;5.076;2023-04-24T04:46:53;29.98;;;27.92;;
64157;SDS011;50449;51.528;5.076;2023-04-24T04:49:21;28.40;;;26.45;;
64157;SDS011;50449;51.528;5.076;2023-04-24T04:51:48;29.13;;;26.63;;
64157;SDS011;50449;51.528;5.076;2023-04-24T04:54:15;27.42;;;25.88;;
64157;SDS011;50449;51.528;5.076;2023-04-24T04:56:41;28.33;;;26.65;;
64157;SDS011;50449;51.528;5.076;2023-04-24T04:59:06;25.95;;;24.55;;
64157;SDS011;50449;51.528;5.076;2023-04-24T05:01:32;28.23;;;26.55;;
64157;SDS011;50449;51.528;5.076;2023-04-24T05:03:57;30.08;;;28.27;;
64157;SDS011;50449;51.528;5.076;2023-04-24T05:06:22;27.35;;;25.60;;
64157;SDS011;50449;51.528;5.076;2023-04-24T05:08:48;26.52;;;25.13;;
64157;SDS011;50449;51.528;5.076;2023-04-24T05:11:13;26.02;;;24.63;;
64157;SDS011;50449;51.528;5.076;2023-04-24T05:13:40;27.83;;;26.02;;
64157;SDS011;50449;51.528;5.076;2023-04-24T05:16:05;26.92;;;25.23;;
64157;SDS011;50449;51.528;5.076;2023-04-24T05:18:31;26.73;;;25.27;;
64157;SDS011;50449;51.528;5.076;2023-04-24T05:20:56;26.23;;;24.83;;
64157;SDS011;50449;51.528;5.076;2023-04-24T05:23:22;26.10;;;24.63;;
64157;SDS011;50449;51.528;5.076;2023-04-24T05:25:50;25.75;;;24.42;;
64157;SDS011;50449;51.528;5.076;2023-04-24T05:28:15;25.48;;;24.17;;
64157;SDS011;50449;51.528;5.076;2023-04-24T05:30:41;26.25;;;24.77;;
64157;SDS011;50449;51.528;5.076;2023-04-24T05:33:06;26.67;;;25.27;;
64157;SDS011;50449;51.528;5.076;2023-04-24T05:35:31;28.27;;;25.63;;
64157;SDS011;50449;51.528;5.076;2023-04-24T05:37:57;25.38;;;24.08;;
64157;SDS011;50449;51.528;5.076;2023-04-24T05:40:22;26.35;;;25.05;;
64157;SDS011;50449;51.528;5.076;2023-04-24T05:42:48;28.00;;;26.40;;
64157;SDS011;50449;51.528;5.076;2023-04-24T05:45:13;25.13;;;23.73;;
64157;SDS011;50449;51.528;5.076;2023-04-24T05:47:42;26.73;;;25.33;;
64157;SDS011;50449;51.528;5.076;2023-04-24T05:50:10;25.05;;;23.75;;
64157;SDS011;50449;51.528;5.076;2023-04-24T05:52:36;29.00;;;27.38;;
64157;SDS011;50449;51.528;5.076;2023-04-24T05:55:01;26.02;;;24.63;;
64157;SDS011;50449;51.528;5.076;2023-04-24T05:57:27;25.98;;;24.48;;
64157;SDS011;50449;51.528;5.076;2023-04-24T05:59:52;24.40;;;23.20;;
64157;SDS011;50449;51.528;5.076;2023-04-24T06:02:18;25.67;;;24.15;;
64157;SDS011;50449;51.528;5.076;2023-04-24T06:04:43;25.90;;;24.40;;
64157;SDS011;50449;51.528;5.076;2023-04-24T06:07:12;25.58;;;24.15;;
64157;SDS011;50449;51.528;5.076;2023-04-24T06:09:38;25.50;;;24.10;;
64157;SDS011;50449;51.528;5.076;2023-04-24T06:12:03;26.00;;;24.70;;
64157;SDS011;50449;51.528;5.076;2023-04-24T06:14:29;26.02;;;24.42;;
64157;SDS011;50449;51.528;5.076;2023-04-24T06:16:54;25.77;;;24.23;;
64157;SDS011;50449;51.528;5.076;2023-04-24T06:19:20;25.25;;;23.85;;
64157;SDS011;50449;51.528;5.076;2023-04-24T06:21:45;24.88;;;23.45;;
64157;SDS011;50449;51.528;5.076;2023-04-24T06:24:13;24.25;;;23.00;;
64157;SDS011;50449;51.528;5.076;2023-04-24T06:26:39;26.65;;;25.02;;
64157;SDS011;50449;51.528;5.076;2023-04-24T06:29:05;24.38;;;23.08;;
64157;SDS011;50449;51.528;5.076;2023-04-24T06:31:32;24.02;;;22.73;;
64157;SDS011;50449;51.528;5.076;2023-04-24T06:34:02;26.00;;;24.30;;
64157;SDS011;50449;51.528;5.076;2023-04-24T06:36:27;26.13;;;24.58;;
64157;SDS011;50449;51.528;5.076;2023-04-24T06:38:53;27.42;;;25.83;;
64157;SDS011;50449;51.528;5.076;2023-04-24T06:41:19;26.00;;;24.58;;
64157;SDS011;50449;51.528;5.076;2023-04-24T06:43:44;24.77;;;23.30;;
64157;SDS011;50449;51.528;5.076;2023-04-24T06:46:10;26.38;;;24.48;;
64157;SDS011;50449;51.528;5.076;2023-04-24T06:48:35;27.92;;;26.02;;
64157;SDS011;50449;51.528;5.076;2023-04-24T06:51:01;25.40;;;24.10;;
64157;SDS011;50449;51.528;5.076;2023-04-24T06:53:26;26.90;;;25.13;;
64157;SDS011;50449;51.528;5.076;2023-04-24T06:55:52;25.38;;;23.80;;
64157;SDS011;50449;51.528;5.076;2023-04-24T06:58:17;25.95;;;24.23;;
64157;SDS011;50449;51.528;5.076;2023-04-24T07:00:43;25.52;;;23.98;;
64157;SDS011;50449;51.528;5.076;2023-04-24T07:03:08;25.50;;;23.63;;
64157;SDS011;50449;51.528;5.076;2023-04-24T07:05:33;24.50;;;22.95;;
64157;SDS011;50449;51.528;5.076;2023-04-24T07:08:00;27.88;;;26.23;;
64157;SDS011;50449;51.528;5.076;2023-04-24T07:10:26;27.60;;;25.83;;
64157;SDS011;50449;51.528;5.076;2023-04-24T07:12:53;28.45;;;26.75;;
64157;SDS011;50449;51.528;5.076;2023-04-24T07:15:19;25.85;;;24.08;;
64157;SDS011;50449;51.528;5.076;2023-04-24T07:17:45;25.27;;;23.70;;
64157;SDS011;50449;51.528;5.076;2023-04-24T07:20:11;26.27;;;24.63;;
64157;SDS011;50449;51.528;5.076;2023-04-24T07:22:39;28.00;;;26.35;;
64157;SDS011;50449;51.528;5.076;2023-04-24T07:25:05;26.85;;;25.35;;
64157;SDS011;50449;51.528;5.076;2023-04-24T07:27:31;26.65;;;25.05;;
64157;SDS011;50449;51.528;5.076;2023-04-24T07:29:57;26.75;;;24.88;;
64157;SDS011;50449;51.528;5.076;2023-04-24T07:32:22;29.45;;;27.55;;
64157;SDS011;50449;51.528;5.076;2023-04-24T07:34:48;28.63;;;26.75;;
64157;SDS011;50449;51.528;5.076;2023-04-24T07:37:13;25.70;;;23.98;;
64157;SDS011;50449;51.528;5.076;2023-04-24T07:39:38;24.83;;;23.33;;
64157;SDS011;50449;51.528;5.076;2023-04-24T07:42:04;26.17;;;23.63;;
64157;SDS011;50449;51.528;5.076;2023-04-24T07:44:29;25.63;;;24.08;;
64157;SDS011;50449;51.528;5.076;2023-04-24T07:46:55;25.67;;;24.25;;
64157;SDS011;50449;51.528;5.076;2023-04-24T07:49:21;24.80;;;23.38;;
64157;SDS011;50449;51.528;5.076;2023-04-24T07:51:46;23.60;;;22.40;;
64157;SDS011;50449;51.528;5.076;2023-04-24T07:54:11;24.70;;;23.30;;
64157;SDS011;50449;51.528;5.076;2023-04-24T07:56:37;24.77;;;23.40;;
64157;SDS011;50449;51.528;5.076;2023-04-24T07:59:07;26.48;;;24.65;;
64157;SDS011;50449;51.528;5.076;2023-04-24T08:01:34;27.55;;;25.95;;
64157;SDS011;50449;51.528;5.076;2023-04-24T08:04:00;25.45;;;23.83;;
64157;SDS011;50449;51.528;5.076;2023-04-24T08:06:25;26.65;;;24.95;;
64157;SDS011;50449;51.528;5.076;2023-04-24T08:08:55;25.95;;;24.13;;
64157;SDS011;50449;51.528;5.076;2023-04-24T08:11:21;24.25;;;22.92;;
64157;SDS011;50449;51.528;5.076;2023-04-24T08:13:46;24.77;;;23.38;;
64157;SDS011;50449;51.528;5.076;2023-04-24T08:16:11;24.92;;;23.27;;
64157;SDS011;50449;51.528;5.076;2023-04-24T08:18:37;25.35;;;23.80;;
64157;SDS011;50449;51.528;5.076;2023-04-24T08:21:02;25.52;;;24.13;;
64157;SDS011;50449;51.528;5.076;2023-04-24T08:23:28;25.67;;;24.17;;
64157;SDS011;50449;51.528;5.076;2023-04-24T08:25:54;25.90;;;24.05;;
64157;SDS011;50449;51.528;5.076;2023-04-24T08:28:20;25.23;;;23.67;;
64157;SDS011;50449;51.528;5.076;2023-04-24T08:30:46;24.58;;;23.17;;
64157;SDS011;50449;51.528;5.076;2023-04-24T08:33:12;23.42;;;22.20;;
64157;SDS011;50449;51.528;5.076;2023-04-24T08:35:38;25.00;;;23.70;;
64157;SDS011;50449;51.528;5.076;2023-04-24T08:38:04;25.40;;;23.88;;
64157;SDS011;50449;51.528;5.076;2023-04-24T08:40:29;24.35;;;22.95;;
64157;SDS011;50449;51.528;5.076;2023-04-24T08:42:58;26.60;;;24.75;;
64157;SDS011;50449;51.528;5.076;2023-04-24T08:45:25;25.13;;;23.27;;
64157;SDS011;50449;51.528;5.076;2023-04-24T08:47:54;23.60;;;22.30;;
64157;SDS011;50449;51.528;5.076;2023-04-24T08:50:20;23.83;;;22.45;;
64157;SDS011;50449;51.528;5.076;2023-04-24T08:52:47;23.80;;;22.30;;
64157;SDS011;50449;51.528;5.076;2023-04-24T08:55:15;23.15;;;21.60;;
64157;SDS011;50449;51.528;5.076;2023-04-24T08:57:43;23.45;;;22.10;;
64157;SDS011;50449;51.528;5.076;2023-04-24T09:00:10;25.58;;;23.92;;
64157;SDS011;50449;51.528;5.076;2023-04-24T09:02:36;23.70;;;22.40;;
64157;SDS011;50449;51.528;5.076;2023-04-24T09:05:04;24.55;;;23.23;;
64157;SDS011;50449;51.528;5.076;2023-04-24T09:07:31;26.02;;;24.08;;
64157;SDS011;50449;51.528;5.076;2023-04-24T09:10:01;25.50;;;23.80;;
64157;SDS011;50449;51.528;5.076;2023-04-24T09:12:27;24.15;;;22.85;;
64157;SDS011;50449;51.528;5.076;2023-04-24T09:14:52;22.58;;;21.48;;
64157;SDS011;50449;51.528;5.076;2023-04-24T09:17:18;23.60;;;22.30;;
64157;SDS011;50449;51.528;5.076;2023-04-24T09:19:44;23.92;;;22.52;;
64157;SDS011;50449;51.528;5.076;2023-04-24T09:22:10;25.05;;;23.55;;
64157;SDS011;50449;51.528;5.076;2023-04-24T09:24:36;24.33;;;22.98;;
64157;SDS011;50449;51.528;5.076;2023-04-24T09:27:01;24.70;;;23.30;;
64157;SDS011;50449;51.528;5.076;2023-04-24T09:29:27;24.95;;;23.55;;
64157;SDS011;50449;51.528;5.076;2023-04-24T09:31:53;25.23;;;23.63;;
64157;SDS011;50449;51.528;5.076;2023-04-24T09:34:22;23.25;;;22.05;;
64157;SDS011;50449;51.528;5.076;2023-04-24T09:36:50;24.13;;;22.70;;
64157;SDS011;50449;51.528;5.076;2023-04-24T09:39:16;24.10;;;22.80;;
64157;SDS011;50449;51.528;5.076;2023-04-24T09:44:22;22.33;;;21.08;;
64157;SDS011;50449;51.528;5.076;2023-04-24T09:49:30;23.65;;;22.42;;
64157;SDS011;50449;51.528;5.076;2023-04-24T09:52:07;24.85;;;23.33;;
64157;SDS011;50449;51.528;5.076;2023-04-24T09:54:36;23.60;;;22.23;;
64157;SDS011;50449;51.528;5.076;2023-04-24T09:57:02;24.00;;;22.20;;
64157;SDS011;50449;51.528;5.076;2023-04-24T09:59:27;24.85;;;23.35;;
64157;SDS011;50449;51.528;5.076;2023-04-24T10:01:54;24.10;;;22.80;;
64157;SDS011;50449;51.528;5.076;2023-04-24T10:04:21;22.35;;;21.15;;
64157;SDS011;50449;51.528;5.076;2023-04-24T10:06:49;23.30;;;22.00;;
64157;SDS011;50449;51.528;5.076;2023-04-24T10:09:19;23.77;;;22.38;;
64157;SDS011;50449;51.528;5.076;2023-04-24T10:11:47;23.40;;;22.10;;
64157;SDS011;50449;51.528;5.076;2023-04-24T10:14:17;24.20;;;22.30;;
64157;SDS011;50449;51.528;5.076;2023-04-24T10:16:48;23.73;;;22.30;;
64157;SDS011;50449;51.528;5.076;2023-04-24T10:19:15;24.67;;;23.35;;
64157;SDS011;50449;51.528;5.076;2023-04-24T10:21:43;22.67;;;21.58;;
64157;SDS011;50449;51.528;5.076;2023-04-24T10:24:13;24.65;;;23.23;;
64157;SDS011;50449;51.528;5.076;2023-04-24T10:26:40;23.27;;;21.73;;
64157;SDS011;50449;51.528;5.076;2023-04-24T10:29:06;23.73;;;22.42;;
64157;SDS011;50449;51.528;5.076;2023-04-24T10:31:37;22.38;;;21.17;;
64157;SDS011;50449;51.528;5.076;2023-04-24T10:34:04;24.63;;;23.25;;
64157;SDS011;50449;51.528;5.076;2023-04-24T10:36:30;23.58;;;22.20;;
64157;SDS011;50449;51.528;5.076;2023-04-24T10:38:59;22.58;;;21.27;;
64157;SDS011;50449;51.528;5.076;2023-04-24T10:41:27;23.25;;;22.00;;
64157;SDS011;50449;51.528;5.076;2023-04-24T10:44:05;23.55;;;22.25;;
64157;SDS011;50449;51.528;5.076;2023-04-24T10:46:31;22.92;;;21.73;;
64157;SDS011;50449;51.528;5.076;2023-04-24T10:48:57;23.88;;;22.58;;
64157;SDS011;50449;51.528;5.076;2023-04-24T10:51:23;23.63;;;22.27;;
64157;SDS011;50449;51.528;5.076;2023-04-24T10:54:21;24.30;;;22.90;;
64157;SDS011;50449;51.528;5.076;2023-04-24T10:56:47;23.33;;;22.13;;
64157;SDS011;50449;51.528;5.076;2023-04-24T10:59:13;23.55;;;22.25;;
64157;SDS011;50449;51.528;5.076;2023-04-24T11:01:53;24.55;;;23.20;;
64157;SDS011;50449;51.528;5.076;2023-04-24T11:04:29;23.45;;;21.95;;
64157;SDS011;50449;51.528;5.076;2023-04-24T11:06:56;22.20;;;20.90;;
64157;SDS011;50449;51.528;5.076;2023-04-24T11:09:22;26.05;;;24.60;;
64157;SDS011;50449;51.528;5.076;2023-04-24T11:11:51;22.27;;;21.08;;
64157;SDS011;50449;51.528;5.076;2023-04-24T11:14:58;23.50;;;22.20;;
64157;SDS011;50449;51.528;5.076;2023-04-24T11:20:08;23.30;;;22.05;;
64157;SDS011;50449;51.528;5.076;2023-04-24T11:22:38;22.60;;;21.30;;
64157;SDS011;50449;51.528;5.076;2023-04-24T11:25:07;24.02;;;22.77;;
64157;SDS011;50449;51.528;5.076;2023-04-24T11:30:09;24.20;;;22.90;;
64157;SDS011;50449;51.528;5.076;2023-04-24T11:32:36;24.90;;;22.52;;
64157;SDS011;50449;51.528;5.076;2023-04-24T11:37:47;22.23;;;21.02;;
64157;SDS011;50449;51.528;5.076;2023-04-24T11:40:17;24.83;;;23.30;;
64157;SDS011;50449;51.528;5.076;2023-04-24T11:42:48;24.48;;;23.17;;
64157;SDS011;50449;51.528;5.076;2023-04-24T11:45:16;23.77;;;22.48;;
64157;SDS011;50449;51.528;5.076;2023-04-24T11:47:43;22.83;;;21.63;;
64157;SDS011;50449;51.528;5.076;2023-04-24T11:50:11;24.67;;;23.15;;
64157;SDS011;50449;51.528;5.076;2023-04-24T11:52:38;21.70;;;20.60;;
64157;SDS011;50449;51.528;5.076;2023-04-24T11:55:22;22.33;;;21.23;;
64157;SDS011;50449;51.528;5.076;2023-04-24T11:57:52;22.50;;;21.20;;
64157;SDS011;50449;51.528;5.076;2023-04-24T12:00:21;24.02;;;22.70;;
64157;SDS011;50449;51.528;5.076;2023-04-24T12:02:49;24.75;;;23.45;;
64157;SDS011;50449;51.528;5.076;2023-04-24T12:05:25;24.40;;;23.00;;
64157;SDS011;50449;51.528;5.076;2023-04-24T12:07:52;22.00;;;20.85;;
64157;SDS011;50449;51.528;5.076;2023-04-24T12:10:21;24.27;;;22.85;;
64157;SDS011;50449;51.528;5.076;2023-04-24T12:12:47;24.42;;;22.73;;
64157;SDS011;50449;51.528;5.076;2023-04-24T12:15:15;25.23;;;23.83;;
64157;SDS011;50449;51.528;5.076;2023-04-24T12:17:41;23.50;;;22.30;;
64157;SDS011;50449;51.528;5.076;2023-04-24T12:20:07;24.98;;;23.38;;
64157;SDS011;50449;51.528;5.076;2023-04-24T12:22:44;22.80;;;21.60;;
64157;SDS011;50449;51.528;5.076;2023-04-24T12:25:10;24.20;;;22.77;;
64157;SDS011;50449;51.528;5.076;2023-04-24T12:27:36;23.83;;;22.55;;
64157;SDS011;50449;51.528;5.076;2023-04-24T12:30:03;24.90;;;23.42;;
64157;SDS011;50449;51.528;5.076;2023-04-24T12:32:30;23.50;;;22.20;;
64157;SDS011;50449;51.528;5.076;2023-04-24T12:34:56;22.73;;;21.52;;
64157;SDS011;50449;51.528;5.076;2023-04-24T12:37:23;25.95;;;23.80;;
64157;SDS011;50449;51.528;5.076;2023-04-24T12:40:01;21.98;;;20.85;;
64157;SDS011;50449;51.528;5.076;2023-04-24T12:42:32;24.42;;;22.90;;
64157;SDS011;50449;51.528;5.076;2023-04-24T12:44:59;24.33;;;23.02;;
64157;SDS011;50449;51.528;5.076;2023-04-24T12:47:26;26.67;;;25.10;;
64157;SDS011;50449;51.528;5.076;2023-04-24T12:49:53;24.30;;;23.10;;
64157;SDS011;50449;51.528;5.076;2023-04-24T12:52:20;25.48;;;23.98;;
64157;SDS011;50449;51.528;5.076;2023-04-24T12:57:15;22.55;;;21.35;;
64157;SDS011;50449;51.528;5.076;2023-04-24T12:59:40;22.42;;;21.30;;
64157;SDS011;50449;51.528;5.076;2023-04-24T13:02:06;24.15;;;22.20;;
64157;SDS011;50449;51.528;5.076;2023-04-24T13:04:32;26.38;;;24.38;;
64157;SDS011;50449;51.528;5.076;2023-04-24T13:06:57;23.75;;;22.52;;
64157;SDS011;50449;51.528;5.076;2023-04-24T13:09:23;26.23;;;24.73;;
64157;SDS011;50449;51.528;5.076;2023-04-24T13:11:49;22.52;;;21.42;;
64157;SDS011;50449;51.528;5.076;2023-04-24T13:14:15;24.38;;;22.88;;
64157;SDS011;50449;51.528;5.076;2023-04-24T13:16:41;24.30;;;23.00;;
64157;SDS011;50449;51.528;5.076;2023-04-24T13:19:06;23.88;;;22.58;;
64157;SDS011;50449;51.528;5.076;2023-04-24T13:21:31;27.08;;;25.20;;
64157;SDS011;50449;51.528;5.076;2023-04-24T13:23:57;23.70;;;22.48;;
64157;SDS011;50449;51.528;5.076;2023-04-24T13:26:22;25.83;;;24.05;;
64157;SDS011;50449;51.528;5.076;2023-04-24T13:28:48;23.92;;;22.58;;
64157;SDS011;50449;51.528;5.076;2023-04-24T13:31:13;24.63;;;23.33;;
64157;SDS011;50449;51.528;5.076;2023-04-24T13:33:39;23.80;;;22.60;;
64157;SDS011;50449;51.528;5.076;2023-04-24T13:36:05;23.80;;;22.50;;
64157;SDS011;50449;51.528;5.076;2023-04-24T13:38:31;25.38;;;23.80;;
64157;SDS011;50449;51.528;5.076;2023-04-24T13:40:56;25.15;;;23.63;;
64157;SDS011;50449;51.528;5.076;2023-04-24T13:43:22;26.52;;;24.98;;
64157;SDS011;50449;51.528;5.076;2023-04-24T13:45:47;26.35;;;24.98;;
64157;SDS011;50449;51.528;5.076;2023-04-24T13:48:13;25.42;;;23.92;;
64157;SDS011;50449;51.528;5.076;2023-04-24T13:50:40;23.60;;;22.40;;
64157;SDS011;50449;51.528;5.076;2023-04-24T13:53:06;24.13;;;22.83;;
64157;SDS011;50449;51.528;5.076;2023-04-24T13:55:32;25.17;;;23.75;;
64157;SDS011;50449;51.528;5.076;2023-04-24T13:57:57;24.20;;;22.70;;
64157;SDS011;50449;51.528;5.076;2023-04-24T14:00:23;27.77;;;26.00;;
64157;SDS011;50449;51.528;5.076;2023-04-24T14:02:48;24.52;;;23.02;;
64157;SDS011;50449;51.528;5.076;2023-04-24T14:05:14;24.73;;;23.30;;
64157;SDS011;50449;51.528;5.076;2023-04-24T14:07:40;24.58;;;23.38;;
64157;SDS011;50449;51.528;5.076;2023-04-24T14:10:06;24.02;;;22.83;;
64157;SDS011;50449;51.528;5.076;2023-04-24T14:12:32;26.30;;;24.80;;
64157;SDS011;50449;51.528;5.076;2023-04-24T14:14:57;25.20;;;23.85;;
64157;SDS011;50449;51.528;5.076;2023-04-24T14:17:23;26.83;;;25.23;;
64157;SDS011;50449;51.528;5.076;2023-04-24T14:19:48;24.92;;;23.45;;
64157;SDS011;50449;51.528;5.076;2023-04-24T14:22:13;26.10;;;24.48;;
64157;SDS011;50449;51.528;5.076;2023-04-24T14:24:39;25.15;;;23.77;;
64157;SDS011;50449;51.528;5.076;2023-04-24T14:27:04;26.23;;;24.48;;
64157;SDS011;50449;51.528;5.076;2023-04-24T14:29:30;26.55;;;24.90;;
64157;SDS011;50449;51.528;5.076;2023-04-24T14:31:55;24.70;;;23.50;;
64157;SDS011;50449;51.528;5.076;2023-04-24T14:34:21;25.52;;;23.77;;
64157;SDS011;50449;51.528;5.076;2023-04-24T14:36:46;24.92;;;23.42;;